Groton New London Airport
KGON : now visible

Airfield :











YOU CAN JOIN US ON...

 
LOGIN :

Register | Disclaimer

   EN    FR    IT 

 









Legend :    VFR   Marginal VFR   IFR   Intensive IFR   Very Intensive IFR
Visi :
Ceiling :
>= 8 km
>= 3000ft
5 to 8 km
1000 to 3000 ft
1500m to 5 km
500 to 1000 ft
800 to 1500m
200 to 500 ft
< 800m
< 200 ft
Symbols :   Thunderstorms  Fog  Heavy snow  Heavy precipitations  Wind > 20 kt






- Airport Elevation : 9 ft
- IATA code : GON


KGON - Groton New London

CURRENT METAR :
  • 010215Z 18022KT 4SM -RA BR BKN012 BKN017 OVC039 16/16 A2952 RMK AO2 PK WND 17032/0205 RAB11 P0001 T01610156 $

EXPIRED METARs :
  • 010156Z 17023G32KT 5SM BR SCT012 BKN043 OVC060 17/16 A2952 RMK AO2 PK WND 16034/0110 RAE23B41E52 SLP997 P0000 T01670156 $
  • 010127Z 17024G31KT 6SM BR BKN013 OVC060 17/16 A2951 RMK AO2 PK WND 16034/0110 RAE23 P0000 T01670156 $
  • 010056Z 15026G32KT 7SM -RA BKN017 BKN022 OVC027 17/16 A2951 RMK AO2 PK WND 17038/2358 RAE22B55 SLP992 P0003 T01670156 $
  • 010040Z 16024G32KT 7SM FEW007 BKN028 OVC040 16/15 A2951 RMK AO2 PK WND 17038/2358 RAE22 P0003 T01610150 $
  • 010016Z 15030G36KT 4SM -RA BR BKN007 BKN012 OVC034 16/15 A2950 RMK AO2 PK WND 17038/2358 PRESFR P0003 T01610150 $
  • 010007Z 16022G38KT 3SM RA BR BKN011 OVC022 16/15 A2951 RMK AO2 PK WND 17038/2358 P0002 T01610150 $
  • 302356Z 16029G38KT 2SM R05/4500VP6000FT RA BR BKN009 BKN014 OVC029 16/15 A2952 RMK AO2 PK WND 16038/2356 SLP996 P0008 6//// T01610150 10161 20144 57006 $
  • 302348Z 16028G34KT 4SM -RA BR BKN009 OVC015 16/15 A2953 RMK AO2 PK WND 16036/2322 CIG 006V011 P0004 T01610150 $

TAF KGON
Valid from the 01 at 01:00 until the 02 at 00:00 UTC


010112Z 0101/0124 17023G36KT P6SM -SHRA SCT008 OVC015 WS020/17060KT
TEMPO 0101/0104 5SM -SHRA BR BKN008 OVC015
FM010400 18018G28KT P6SM -SHRA OVC010 WS020/19050KT
FM010900 19012KT P6SM BKN019 OVC030
FM011200 21011KT P6SM OVC035
FM011800 22017G23KT P6SM BKN040
KZBW FIR / North America



MET'MAP, your aeronautical weather chart ! - Copyright ORBIFLY December 2007 - Disclaimer

ORBIFLY MET'MAP TEAM :

Programming & Development : Alexandra Zaïnal
Concept & original design : Baudouin d'Aumeries
Assistance for programming : Marc-Olivier Méhu
Technical & hardware support : Manuel Goepfert

Contact : metmap@orbifly.com




SOURCES & CREDITS :

   NOAA       Earth
Advisory